Terminal Aerodrome Forecast
Issued by NWS Central Illinois

Home | Current Version | Previous Version | Text Only | Print | Product List | Glossary On
Versions: 1 2 3 4 5 6 7 8 9 10 11 12 13 14 15
043
FTUS43 KILX 031725
TAFSPI
TAF
KSPI 031725Z 0318/0418 00000KT P6SM BKN150
     FM040800 VRB03KT P6SM VCSH OVC070
     FM041100 12004KT 2SM -SNRA BR OVC020
     FM041500 13005KT 1 1/2SM -RASN BR OVC010=

USA.gov is the U.S. government's official web portal to all federal, state and local government web resources and services.